Time;durP1;ratioP1;P1;durP2;ratioP2;P2;SDS_P1;SDS_P2;PMS_P1;PMS_P2;Temp;Humidity;BMP_temperature;BMP_pressure;BME280_temperature;BME280_humidity;BME280_pressure;Samples;Min_cycle;Max_cycle;Signal;HPM_P1;HPM_P2
2020/12/27 05:47:12;;;;;;;15.80;6.60;;;;;;;;;;6151896;22;884198;-81
2020/12/27 05:49:38;;;;;;;13.10;7.30;;;;;;;;;;6213537;23;20005;-81
2020/12/27 05:52:11;;;;;;;11.80;6.28;;;;;;;;;;6216749;23;20004;-81
2020/12/27 05:54:37;;;;;;;12.25;6.80;;;;;;;;;;6216867;23;20031;-81
2020/12/27 05:57:04;;;;;;;10.63;5.07;;;;;;;;;;6216767;23;20066;-81
2020/12/27 06:01:59;;;;;;;13.43;6.10;;;;;;;;;;6166315;23;20101;-81
2020/12/27 06:04:44;;;;;;;10.02;5.90;;;;;;;;;;6167651;23;20008;-81
2020/12/27 06:07:20;;;;;;;12.05;5.78;;;;;;;;;;6172323;23;20071;-81
2020/12/27 06:12:05;;;;;;;12.02;5.55;;;;;;;;;;5104384;27;20389;-80
2020/12/27 06:14:41;;;;;;;13.15;6.00;;;;;;;;;;5105496;28;20479;-80
2020/12/27 06:17:16;;;;;;;10.55;6.05;;;;;;;;;;5098830;28;20038;-80
2020/12/27 06:19:58;;;;;;;10.15;5.28;;;;;;;;;;5103063;28;20038;-80
2020/12/27 06:22:28;;;;;;;8.68;5.38;;;;;;;;;;5070367;28;20063;-80
2020/12/27 06:24:56;;;;;;;12.07;5.70;;;;;;;;;;5107736;28;20434;-80
2020/12/27 06:27:22;;;;;;;13.43;5.75;;;;;;;;;;5111706;28;20024;-80
2020/12/27 06:32:09;;;;;;;9.82;5.63;;;;;;;;;;5121817;27;20105;-81
2020/12/27 06:34:35;;;;;;;9.07;4.95;;;;;;;;;;5103370;28;20021;-81
2020/12/27 06:37:05;;;;;;;11.45;5.38;;;;;;;;;;5095675;28;20024;-81
2020/12/27 06:39:31;;;;;;;15.40;5.22;;;;;;;;;;5097462;28;20029;-81
2020/12/27 06:42:04;;;;;;;12.48;6.75;;;;;;;;;;5102388;28;20117;-82
2020/12/27 06:44:40;;;;;;;10.68;5.20;;;;;;;;;;5102134;28;20020;-81
2020/12/27 06:47:07;;;;;;;8.02;5.22;;;;;;;;;;5088933;28;20337;-81
2020/12/27 06:49:33;;;;;;;8.30;3.88;;;;;;;;;;5101822;28;20075;-81
2020/12/27 06:52:19;;;;;;;10.07;5.55;;;;;;;;;;5098801;28;20059;-81
2020/12/27 06:54:48;;;;;;;8.30;4.90;;;;;;;;;;5098249;28;20051;-81
2020/12/27 06:57:33;;;;;;;11.02;5.25;;;;;;;;;;5100755;28;20020;-81
2020/12/27 07:00:17;;;;;;;10.57;4.68;;;;;;;;;;5101909;28;20028;-81
2020/12/27 07:02:43;;;;;;;8.35;5.22;;;;;;;;;;5104144;28;20066;-81
2020/12/27 07:05:10;;;;;;;10.52;4.32;;;;;;;;;;5094884;28;20111;-81
2020/12/27 07:07:45;;;;;;;6.65;3.58;;;;;;;;;;5086832;28;20024;-81
2020/12/27 07:10:15;;;;;;;7.28;4.00;;;;;;;;;;5090599;28;20091;-81
2020/12/27 07:12:41;;;;;;;6.95;3.83;;;;;;;;;;5093934;28;20495;-81
2020/12/27 07:15:10;;;;;;;7.65;4.35;;;;;;;;;;5095334;28;20025;-81
2020/12/27 07:17:36;;;;;;;6.55;4.20;;;;;;;;;;5088887;28;20024;-81
2020/12/27 07:20:15;;;;;;;7.65;4.00;;;;;;;;;;5103631;28;20032;-81
2020/12/27 07:22:41;;;;;;;7.22;4.05;;;;;;;;;;5098072;28;20036;-81
2020/12/27 07:25:06;;;;;;;6.80;4.00;;;;;;;;;;5096852;28;20046;-81
2020/12/27 07:27:35;;;;;;;9.85;4.45;;;;;;;;;;5098576;28;20369;-81
2020/12/27 07:30:02;;;;;;;7.57;4.28;;;;;;;;;;5096994;28;20092;-81
2020/12/27 07:32:28;;;;;;;7.30;3.75;;;;;;;;;;5096517;28;20040;-81
2020/12/27 07:37:13;;;;;;;10.07;4.57;;;;;;;;;;5110942;27;20359;-79
2020/12/27 07:39:48;;;;;;;6.45;3.63;;;;;;;;;;5095473;28;20395;-79
2020/12/27 07:42:20;;;;;;;7.25;3.85;;;;;;;;;;5092755;28;20032;-79
2020/12/27 07:44:46;;;;;;;6.63;3.78;;;;;;;;;;5098603;28;20395;-79
2020/12/27 07:47:12;;;;;;;9.07;3.35;;;;;;;;;;5100421;28;20032;-79
2020/12/27 07:49:38;;;;;;;6.95;3.35;;;;;;;;;;5099838;28;20395;-80
2020/12/27 07:52:04;;;;;;;8.68;3.78;;;;;;;;;;5104191;28;20126;-81
2020/12/27 07:54:30;;;;;;;5.90;3.42;;;;;;;;;;5104296;28;20483;-82
2020/12/27 07:56:56;;;;;;;7.50;3.20;;;;;;;;;;5098862;28;20043;-82
2020/12/27 07:59:22;;;;;;;7.93;3.90;;;;;;;;;;5102532;28;20028;-82
2020/12/27 08:01:48;;;;;;;6.95;3.45;;;;;;;;;;5102830;28;20028;-82
2020/12/27 08:04:15;;;;;;;7.47;3.65;;;;;;;;;;5103854;28;20494;-82
2020/12/27 08:06:41;;;;;;;6.85;3.85;;;;;;;;;;5102164;28;20025;-79
2020/12/27 08:09:11;;;;;;;10.32;4.00;;;;;;;;;;5099074;28;20050;-79
2020/12/27 08:11:41;;;;;;;14.02;7.78;;;;;;;;;;5100300;28;20056;-80
2020/12/27 08:14:08;;;;;;;15.98;8.18;;;;;;;;;;5100834;28;20036;-79
2020/12/27 08:16:36;;;;;;;10.20;5.57;;;;;;;;;;5097836;28;20035;-79
2020/12/27 08:21:21;;;;;;;7.72;3.80;;;;;;;;;;5109585;27;20308;-81
2020/12/27 08:23:56;;;;;;;9.30;5.38;;;;;;;;;;5096881;28;20552;-81
2020/12/27 08:26:22;;;;;;;7.18;4.43;;;;;;;;;;5083196;28;20030;-81
2020/12/27 08:28:48;;;;;;;8.15;4.30;;;;;;;;;;5087182;28;20443;-82
2020/12/27 08:31:24;;;;;;;7.18;3.50;;;;;;;;;;5090744;28;20055;-82
2020/12/27 08:33:50;;;;;;;6.65;3.15;;;;;;;;;;5089904;28;20603;-81
2020/12/27 08:36:20;;;;;;;5.53;3.42;;;;;;;;;;5091476;28;20078;-82
2020/12/27 08:38:57;;;;;;;6.60;3.40;;;;;;;;;;5088773;28;20396;-82
2020/12/27 08:41:24;;;;;;;7.50;4.18;;;;;;;;;;5088215;28;20264;-81
2020/12/27 08:43:50;;;;;;;6.57;3.30;;;;;;;;;;5087192;28;20020;-82
2020/12/27 08:46:18;;;;;;;5.68;3.63;;;;;;;;;;5098097;28;20028;-81
2020/12/27 08:48:47;;;;;;;8.20;3.63;;;;;;;;;;5105291;28;20027;-81
2020/12/27 08:51:13;;;;;;;5.88;3.22;;;;;;;;;;5104171;28;20040;-81
2020/12/27 08:53:44;;;;;;;6.70;3.67;;;;;;;;;;5086876;28;20111;-81
2020/12/27 08:56:11;;;;;;;5.47;3.28;;;;;;;;;;5086574;28;20112;-81
2020/12/27 08:58:37;;;;;;;6.97;3.40;;;;;;;;;;5085321;28;20553;-81
2020/12/27 09:01:03;;;;;;;7.03;3.13;;;;;;;;;;5085946;28;20040;-81
2020/12/27 09:03:29;;;;;;;6.25;3.15;;;;;;;;;;5082124;28;20028;-81
2020/12/27 09:05:55;;;;;;;5.70;3.10;;;;;;;;;;5088707;28;20031;-81
2020/12/27 09:08:21;;;;;;;7.63;4.75;;;;;;;;;;5089628;28;20028;-81
2020/12/27 09:10:48;;;;;;;5.93;3.45;;;;;;;;;;5096095;28;20032;-81
2020/12/27 09:13:15;;;;;;;6.43;3.72;;;;;;;;;;5098285;28;20028;-81
2020/12/27 09:15:45;;;;;;;7.38;3.08;;;;;;;;;;5091476;28;20043;-81
2020/12/27 09:18:12;;;;;;;7.47;3.45;;;;;;;;;;5091883;28;20051;-81
2020/12/27 09:20:39;;;;;;;6.47;3.00;;;;;;;;;;5085387;28;20091;-81
2020/12/27 09:23:18;;;;;;;7.18;3.45;;;;;;;;;;5087668;28;20437;-81
2020/12/27 09:25:45;;;;;;;5.63;2.75;;;;;;;;;;5084847;28;20111;-81
2020/12/27 09:28:18;;;;;;;8.68;3.78;;;;;;;;;;5083962;28;20524;-82
2020/12/27 09:30:45;;;;;;;7.60;3.67;;;;;;;;;;5085176;28;20465;-81
2020/12/27 09:33:11;;;;;;;9.93;3.15;;;;;;;;;;5075964;28;20109;-81
2020/12/27 09:35:37;;;;;;;6.75;2.90;;;;;;;;;;5069789;28;20499;-82
2020/12/27 09:38:18;;;;;;;3.92;2.03;;;;;;;;;;5075194;28;20064;-81
2020/12/27 09:40:44;;;;;;;4.93;2.95;;;;;;;;;;5075950;28;20141;-81
2020/12/27 09:43:10;;;;;;;5.20;2.80;;;;;;;;;;5073961;28;20484;-82
2020/12/27 09:45:40;;;;;;;5.05;2.28;;;;;;;;;;5073507;28;20090;-81
2020/12/27 09:48:06;;;;;;;6.55;2.28;;;;;;;;;;5070478;28;20016;-81
2020/12/27 09:50:36;;;;;;;5.78;2.50;;;;;;;;;;5067773;28;20036;-81
2020/12/27 09:53:05;;;;;;;6.15;2.60;;;;;;;;;;5072465;28;20028;-81
2020/12/27 09:55:31;;;;;;;6.55;2.85;;;;;;;;;;5073343;28;20028;-81
2020/12/27 09:57:58;;;;;;;5.65;3.45;;;;;;;;;;5072765;28;20036;-81
2020/12/27 10:00:24;;;;;;;5.43;3.10;;;;;;;;;;5076018;28;20112;-82
2020/12/27 10:02:50;;;;;;;6.95;3.33;;;;;;;;;;5069575;28;20027;-81
2020/12/27 10:05:16;;;;;;;6.78;2.97;;;;;;;;;;5073633;28;20032;-81
2020/12/27 10:07:43;;;;;;;6.60;2.60;;;;;;;;;;5072385;28;20091;-81
2020/12/27 10:10:10;;;;;;;6.43;2.78;;;;;;;;;;5074387;28;20028;-82
2020/12/27 10:12:36;;;;;;;6.30;2.58;;;;;;;;;;5075152;28;20373;-81
2020/12/27 10:15:03;;;;;;;5.40;2.58;;;;;;;;;;5075569;28;20494;-81
2020/12/27 10:17:29;;;;;;;8.00;3.25;;;;;;;;;;5071733;28;20485;-81
2020/12/27 10:19:55;;;;;;;7.43;2.33;;;;;;;;;;5075896;28;20087;-80
2020/12/27 10:22:21;;;;;;;6.35;3.00;;;;;;;;;;5073495;28;20393;-80
2020/12/27 10:24:47;;;;;;;7.28;2.42;;;;;;;;;;5072338;28;20789;-80
2020/12/27 10:27:13;;;;;;;5.20;2.53;;;;;;;;;;5075047;28;20032;-80
2020/12/27 10:29:40;;;;;;;8.75;4.40;;;;;;;;;;5073649;28;20028;-80
2020/12/27 10:32:07;;;;;;;4.70;2.08;;;;;;;;;;5074508;28;20020;-80
2020/12/27 10:34:33;;;;;;;5.15;2.00;;;;;;;;;;5072780;28;20025;-80
2020/12/27 10:37:00;;;;;;;5.50;2.78;;;;;;;;;;5073807;28;20032;-80
2020/12/27 10:39:26;;;;;;;5.97;2.67;;;;;;;;;;5071522;28;20017;-80
2020/12/27 10:41:52;;;;;;;6.68;2.92;;;;;;;;;;5072137;28;20032;-81
2020/12/27 10:44:19;;;;;;;4.35;2.10;;;;;;;;;;5070272;28;20021;-81
2020/12/27 10:46:45;;;;;;;6.05;3.45;;;;;;;;;;5072358;28;20414;-81
2020/12/27 10:49:12;;;;;;;5.15;2.55;;;;;;;;;;5071028;28;20016;-81
2020/12/27 10:51:39;;;;;;;6.32;2.58;;;;;;;;;;5071953;28;20743;-81
2020/12/27 10:54:05;;;;;;;6.47;3.35;;;;;;;;;;5069975;28;20081;-81
2020/12/27 10:56:31;;;;;;;6.78;3.30;;;;;;;;;;5079560;28;20377;-81
2020/12/27 10:58:57;;;;;;;4.68;1.90;;;;;;;;;;5076662;28;20036;-81
2020/12/27 11:01:23;;;;;;;4.25;1.80;;;;;;;;;;5079783;28;20029;-81
2020/12/27 11:03:49;;;;;;;5.97;2.20;;;;;;;;;;5074847;28;20025;-82
2020/12/27 11:06:15;;;;;;;6.13;2.55;;;;;;;;;;5077213;28;20507;-82
2020/12/27 11:08:41;;;;;;;5.63;2.70;;;;;;;;;;5072223;28;20024;-82
2020/12/27 11:11:07;;;;;;;5.13;2.55;;;;;;;;;;5079632;28;20123;-82
2020/12/27 11:13:33;;;;;;;5.68;2.30;;;;;;;;;;5080330;28;20043;-82
2020/12/27 11:15:59;;;;;;;6.47;2.65;;;;;;;;;;5072010;28;20086;-81
2020/12/27 11:18:25;;;;;;;4.85;2.45;;;;;;;;;;5076245;28;20029;-82
2020/12/27 11:20:51;;;;;;;5.32;2.25;;;;;;;;;;5070295;28;20060;-82
2020/12/27 11:23:17;;;;;;;6.50;2.95;;;;;;;;;;5075134;28;20025;-81
2020/12/27 11:25:43;;;;;;;6.15;2.90;;;;;;;;;;5068375;28;20119;-83
2020/12/27 11:28:09;;;;;;;4.95;2.30;;;;;;;;;;5077554;28;20081;-82
2020/12/27 11:30:35;;;;;;;4.53;2.42;;;;;;;;;;5072149;28;20024;-81
2020/12/27 11:33:01;;;;;;;6.07;3.28;;;;;;;;;;5080772;28;20984;-81
2020/12/27 11:37:46;;;;;;;3.63;1.90;;;;;;;;;;5094302;27;20353;-81
2020/12/27 11:40:12;;;;;;;4.18;1.98;;;;;;;;;;5084038;28;20033;-81
2020/12/27 11:42:39;;;;;;;4.03;1.92;;;;;;;;;;5082590;28;20086;-81
2020/12/27 11:45:06;;;;;;;5.68;2.70;;;;;;;;;;5093653;28;20066;-81
2020/12/27 11:47:31;;;;;;;5.10;2.60;;;;;;;;;;5091786;28;20020;-81
2020/12/27 11:49:57;;;;;;;6.38;2.20;;;;;;;;;;5086950;28;20374;-82
2020/12/27 11:52:25;;;;;;;4.97;2.00;;;;;;;;;;5105552;28;20072;-82
2020/12/27 11:54:51;;;;;;;6.25;1.92;;;;;;;;;;5100916;28;20016;-82
2020/12/27 11:57:17;;;;;;;5.70;2.22;;;;;;;;;;5101517;28;20092;-81
2020/12/27 11:59:43;;;;;;;4.13;2.13;;;;;;;;;;5101380;28;20028;-82
2020/12/27 12:02:09;;;;;;;4.07;2.13;;;;;;;;;;5098122;28;20020;-81
2020/12/27 12:04:35;;;;;;;4.28;2.20;;;;;;;;;;5095190;28;20016;-82
2020/12/27 12:07:01;;;;;;;5.30;1.95;;;;;;;;;;5102636;28;20036;-82
2020/12/27 12:09:27;;;;;;;3.20;1.77;;;;;;;;;;5102158;28;20024;-82
2020/12/27 12:11:53;;;;;;;3.67;2.00;;;;;;;;;;5113533;28;20080;-82
2020/12/27 12:14:19;;;;;;;5.78;2.03;;;;;;;;;;5111688;28;20039;-82
2020/12/27 12:16:45;;;;;;;5.00;2.05;;;;;;;;;;5107661;28;20037;-83
2020/12/27 12:19:11;;;;;;;3.78;1.80;;;;;;;;;;5098848;28;20028;-83
2020/12/27 12:21:37;;;;;;;5.75;2.60;;;;;;;;;;5095680;28;20056;-82
2020/12/27 12:24:03;;;;;;;5.57;2.13;;;;;;;;;;5095286;28;20546;-83
2020/12/27 12:26:29;;;;;;;4.57;1.60;;;;;;;;;;5094957;28;20412;-82
2020/12/27 12:28:56;;;;;;;4.70;2.17;;;;;;;;;;5095740;28;20020;-82
2020/12/27 12:31:22;;;;;;;4.38;2.28;;;;;;;;;;5103714;28;20030;-82
2020/12/27 12:36:06;;;;;;;3.88;2.40;;;;;;;;;;5081669;28;20398;-82
2020/12/27 12:38:33;;;;;;;3.83;1.70;;;;;;;;;;5081884;28;20047;-83
2020/12/27 12:40:59;;;;;;;4.90;1.88;;;;;;;;;;5066200;28;20121;-82
2020/12/27 12:43:30;;;;;;;7.35;2.72;;;;;;;;;;5067697;28;20089;-83
2020/12/27 12:45:57;;;;;;;4.47;2.63;;;;;;;;;;5067226;28;20040;-82
2020/12/27 12:50:42;;;;;;;4.32;2.25;;;;;;;;;;5112315;27;20705;-84
2020/12/27 12:53:08;;;;;;;4.07;1.95;;;;;;;;;;5111852;28;20024;-84
2020/12/27 12:55:34;;;;;;;5.18;2.10;;;;;;;;;;5106771;28;20024;-82
2020/12/27 12:58:00;;;;;;;3.67;2.00;;;;;;;;;;5107967;28;20068;-82
2020/12/27 13:00:26;;;;;;;4.63;2.00;;;;;;;;;;5111738;28;20101;-82
2020/12/27 13:02:52;;;;;;;4.07;1.85;;;;;;;;;;5113093;28;20125;-83
2020/12/27 13:05:18;;;;;;;3.88;2.05;;;;;;;;;;5104752;28;20066;-83
2020/12/27 13:10:03;;;;;;;4.57;2.50;;;;;;;;;;5090138;27;20405;-84
2020/12/27 13:12:29;;;;;;;5.03;2.03;;;;;;;;;;5072287;28;20400;-83
2020/12/27 13:14:54;;;;;;;3.97;1.80;;;;;;;;;;5069271;28;20056;-83
2020/12/27 13:17:20;;;;;;;6.63;2.08;;;;;;;;;;5075510;28;20024;-84
2020/12/27 13:19:46;;;;;;;4.45;2.28;;;;;;;;;;5057727;28;20473;-83
2020/12/27 13:22:12;;;;;;;6.78;1.95;;;;;;;;;;5073625;28;20070;-83
2020/12/27 13:24:38;;;;;;;5.10;1.90;;;;;;;;;;5065077;28;20103;-83
2020/12/27 13:27:04;;;;;;;3.60;1.63;;;;;;;;;;5078849;28;20028;-83
2020/12/27 13:29:30;;;;;;;4.93;1.80;;;;;;;;;;5064911;28;20017;-83
2020/12/27 13:31:56;;;;;;;6.28;2.20;;;;;;;;;;5064453;28;20044;-84
2020/12/27 13:34:22;;;;;;;4.60;2.38;;;;;;;;;;5079655;28;20025;-83
2020/12/27 13:36:48;;;;;;;4.80;2.72;;;;;;;;;;5089094;28;20047;-83
2020/12/27 13:41:36;;;;;;;4.40;2.63;;;;;;;;;;5116232;27;20420;-82
2020/12/27 13:44:03;;;;;;;3.05;1.77;;;;;;;;;;5090765;28;20032;-82
2020/12/27 13:46:34;;;;;;;3.60;1.83;;;;;;;;;;5099146;28;20021;-82
2020/12/27 13:49:00;;;;;;;3.63;1.95;;;;;;;;;;5088968;28;20057;-82
2020/12/27 13:51:26;;;;;;;6.45;2.45;;;;;;;;;;5084730;28;20109;-82
2020/12/27 13:53:52;;;;;;;4.13;1.95;;;;;;;;;;5091598;28;20496;-82
2020/12/27 13:56:25;;;;;;;4.43;2.72;;;;;;;;;;5096177;28;20016;-83
2020/12/27 13:58:51;;;;;;;4.82;2.47;;;;;;;;;;5102772;28;20202;-83
2020/12/27 14:01:18;;;;;;;4.88;2.63;;;;;;;;;;5089411;28;20047;-82
2020/12/27 14:03:44;;;;;;;4.72;2.20;;;;;;;;;;5081765;28;20107;-83
2020/12/27 14:06:10;;;;;;;3.33;1.70;;;;;;;;;;5085723;28;20032;-82
2020/12/27 14:08:36;;;;;;;2.80;1.55;;;;;;;;;;5089885;28;20044;-83
2020/12/27 14:11:02;;;;;;;4.40;1.88;;;;;;;;;;5084762;28;20240;-82
2020/12/27 14:13:27;;;;;;;4.00;1.67;;;;;;;;;;5079856;28;20032;-83
2020/12/27 14:15:53;;;;;;;3.60;1.52;;;;;;;;;;5081407;28;20031;-83
2020/12/27 14:18:19;;;;;;;6.13;2.15;;;;;;;;;;5080676;28;20082;-83
2020/12/27 14:20:48;;;;;;;3.17;1.55;;;;;;;;;;5083494;28;20032;-82
2020/12/27 14:25:32;;;;;;;3.30;1.50;;;;;;;;;;5085913;27;20372;-83
2020/12/27 14:27:58;;;;;;;3.35;1.75;;;;;;;;;;5076147;28;20024;-83
2020/12/27 14:30:24;;;;;;;4.70;1.77;;;;;;;;;;5079167;28;20444;-83
2020/12/27 14:32:50;;;;;;;3.72;2.20;;;;;;;;;;5075124;28;20029;-83
2020/12/27 14:35:19;;;;;;;22.33;14.90;;;;;;;;;;5084284;28;20088;-83
2020/12/27 14:37:46;;;;;;;18.40;11.63;;;;;;;;;;5074274;28;20024;-83
2020/12/27 14:40:12;;;;;;;10.88;5.45;;;;;;;;;;5087920;28;20361;-83
2020/12/27 14:42:38;;;;;;;9.82;7.10;;;;;;;;;;5076586;28;20039;-83
2020/12/27 14:45:04;;;;;;;14.95;9.63;;;;;;;;;;5087808;28;20028;-83
2020/12/27 14:47:30;;;;;;;12.63;9.13;;;;;;;;;;5081040;28;20028;-83
2020/12/27 14:49:56;;;;;;;7.60;4.85;;;;;;;;;;5073650;28;20032;-83
2020/12/27 14:52:22;;;;;;;6.65;3.88;;;;;;;;;;5082480;28;20025;-83
2020/12/27 14:54:47;;;;;;;5.68;3.47;;;;;;;;;;5081849;28;20028;-83
2020/12/27 14:57:13;;;;;;;4.70;2.65;;;;;;;;;;5086034;28;20024;-83
2020/12/27 15:01:58;;;;;;;13.52;9.13;;;;;;;;;;5127908;27;20707;-82
2020/12/27 15:04:24;;;;;;;13.13;6.82;;;;;;;;;;5120506;28;20019;-82
2020/12/27 15:06:56;;;;;;;6.20;2.40;;;;;;;;;;5115374;28;20069;-81
2020/12/27 15:09:22;;;;;;;4.13;1.90;;;;;;;;;;5117454;28;20050;-81
2020/12/27 15:11:48;;;;;;;4.28;2.17;;;;;;;;;;5122402;28;20034;-82
2020/12/27 15:14:15;;;;;;;4.30;1.83;;;;;;;;;;5118263;28;20042;-82
2020/12/27 15:16:41;;;;;;;4.38;2.08;;;;;;;;;;5118317;28;20023;-82
2020/12/27 15:19:06;;;;;;;3.53;1.80;;;;;;;;;;5129594;28;20497;-81
2020/12/27 15:21:32;;;;;;;4.35;2.72;;;;;;;;;;5109590;28;20024;-82
2020/12/27 15:23:58;;;;;;;3.53;1.85;;;;;;;;;;5113825;28;20028;-81
2020/12/27 15:26:24;;;;;;;4.05;2.13;;;;;;;;;;5120834;28;20034;-81
2020/12/27 15:28:50;;;;;;;4.15;1.50;;;;;;;;;;5125656;28;20027;-81
2020/12/27 15:31:17;;;;;;;5.72;1.85;;;;;;;;;;5109338;28;20038;-81
2020/12/27 15:33:43;;;;;;;3.63;1.92;;;;;;;;;;5108620;28;20039;-81
2020/12/27 15:36:09;;;;;;;3.92;1.55;;;;;;;;;;5117812;28;20023;-81
2020/12/27 15:38:35;;;;;;;11.35;7.63;;;;;;;;;;5115408;28;20036;-81
2020/12/27 15:41:01;;;;;;;8.55;5.35;;;;;;;;;;5111541;28;20074;-81
2020/12/27 15:43:27;;;;;;;20.27;11.80;;;;;;;;;;5109189;28;20027;-81
2020/12/27 15:45:53;;;;;;;29.52;15.27;;;;;;;;;;5112929;28;20419;-81
2020/12/27 15:48:19;;;;;;;16.23;8.43;;;;;;;;;;5117319;28;20356;-81
2020/12/27 15:50:45;;;;;;;13.43;5.60;;;;;;;;;;5118769;28;20077;-81
2020/12/27 15:53:11;;;;;;;60.20;24.52;;;;;;;;;;5121788;28;20711;-82
2020/12/27 15:55:37;;;;;;;45.10;22.77;;;;;;;;;;5118057;28;20023;-82
2020/12/27 15:58:04;;;;;;;10.02;5.35;;;;;;;;;;5109147;28;20036;-81
2020/12/27 16:00:30;;;;;;;9.77;4.90;;;;;;;;;;5115875;28;20040;-81
2020/12/27 16:02:57;;;;;;;7.32;4.05;;;;;;;;;;5124801;28;20067;-82
2020/12/27 16:05:23;;;;;;;13.48;7.53;;;;;;;;;;5118916;28;20851;-82
2020/12/27 16:07:49;;;;;;;25.13;13.45;;;;;;;;;;5121845;28;20066;-82
2020/12/27 16:10:15;;;;;;;13.07;7.55;;;;;;;;;;5128159;28;20022;-82
2020/12/27 16:12:41;;;;;;;5.47;2.92;;;;;;;;;;5115097;28;20036;-82
2020/12/27 16:15:07;;;;;;;5.18;2.28;;;;;;;;;;5107975;28;20150;-82
2020/12/27 16:17:35;;;;;;;4.72;2.20;;;;;;;;;;5106291;28;20035;-82
2020/12/27 16:20:02;;;;;;;3.83;1.70;;;;;;;;;;5117335;28;20028;-81
2020/12/27 16:22:28;;;;;;;4.05;2.15;;;;;;;;;;5092796;28;20029;-82
2020/12/27 16:24:54;;;;;;;4.88;2.50;;;;;;;;;;5106512;28;20024;-82
2020/12/27 16:27:20;;;;;;;4.18;2.22;;;;;;;;;;5102339;28;20048;-81
2020/12/27 16:29:46;;;;;;;2.67;1.58;;;;;;;;;;5103512;28;20020;-82
2020/12/27 16:32:12;;;;;;;3.33;1.45;;;;;;;;;;5108010;28;20039;-82
2020/12/27 16:36:56;;;;;;;5.35;2.15;;;;;;;;;;5094181;27;20447;-83
2020/12/27 16:39:23;;;;;;;4.70;2.13;;;;;;;;;;5097848;28;20032;-83
2020/12/27 16:41:49;;;;;;;4.13;1.98;;;;;;;;;;5087862;28;20033;-84
2020/12/27 16:44:15;;;;;;;5.72;3.30;;;;;;;;;;5075563;28;20028;-84
2020/12/27 16:46:41;;;;;;;8.57;4.68;;;;;;;;;;5077368;28;20074;-84
2020/12/27 16:49:07;;;;;;;8.63;4.78;;;;;;;;;;5075677;28;20016;-84
2020/12/27 16:51:33;;;;;;;7.32;3.20;;;;;;;;;;5077024;28;20036;-84
2020/12/27 16:53:58;;;;;;;3.47;2.20;;;;;;;;;;5078315;28;20091;-84
2020/12/27 16:56:26;;;;;;;4.22;2.00;;;;;;;;;;5079269;28;20020;-84
2020/12/27 16:58:52;;;;;;;3.05;1.63;;;;;;;;;;5078806;28;20126;-83
2020/12/27 17:01:18;;;;;;;2.97;1.80;;;;;;;;;;5077694;28;20024;-84
2020/12/27 17:03:44;;;;;;;3.45;1.67;;;;;;;;;;5079793;28;20016;-84
2020/12/27 17:08:28;;;;;;;3.33;1.30;;;;;;;;;;5097865;27;20435;-84
2020/12/27 17:10:54;;;;;;;3.60;1.88;;;;;;;;;;5116284;28;20027;-84
2020/12/27 17:13:20;;;;;;;4.55;1.77;;;;;;;;;;5098019;28;20736;-84
2020/12/27 17:15:46;;;;;;;2.92;1.42;;;;;;;;;;5095314;28;20842;-84
2020/12/27 17:18:12;;;;;;;4.63;1.55;;;;;;;;;;5095944;28;20499;-84
2020/12/27 17:20:42;;;;;;;2.88;1.38;;;;;;;;;;5078842;28;20029;-84
2020/12/27 17:23:08;;;;;;;2.83;1.50;;;;;;;;;;5099355;28;20740;-84
2020/12/27 17:25:34;;;;;;;4.75;1.88;;;;;;;;;;5096313;28;20032;-83
2020/12/27 17:28:00;;;;;;;4.45;2.25;;;;;;;;;;5099151;28;20436;-83
2020/12/27 17:30:26;;;;;;;3.63;1.75;;;;;;;;;;5095687;28;20099;-83
2020/12/27 17:32:52;;;;;;;2.97;1.35;;;;;;;;;;5094368;28;20036;-83
2020/12/27 17:35:18;;;;;;;4.00;2.08;;;;;;;;;;5095972;28;20035;-83
2020/12/27 17:37:44;;;;;;;4.57;1.92;;;;;;;;;;5093427;28;20025;-83
2020/12/27 17:40:12;;;;;;;3.15;1.52;;;;;;;;;;5100847;28;20044;-83
2020/12/27 17:42:38;;;;;;;4.43;1.63;;;;;;;;;;5105038;28;20032;-82
2020/12/27 17:45:04;;;;;;;5.28;2.72;;;;;;;;;;5098518;28;20161;-83
2020/12/27 17:47:30;;;;;;;2.47;1.20;;;;;;;;;;5095815;28;20106;-82
2020/12/27 17:49:56;;;;;;;4.75;1.75;;;;;;;;;;5104172;28;20483;-82
2020/12/27 17:52:22;;;;;;;3.90;1.75;;;;;;;;;;5102059;28;20032;-83
2020/12/27 17:54:48;;;;;;;5.03;1.77;;;;;;;;;;5102987;28;20024;-82
2020/12/27 17:57:14;;;;;;;3.80;1.90;;;;;;;;;;5105834;28;20101;-83
2020/12/27 17:59:40;;;;;;;3.92;1.65;;;;;;;;;;5118916;22;20495;-82
2020/12/27 18:02:06;;;;;;;4.18;1.83;;;;;;;;;;5063934;28;20039;-83
2020/12/27 18:04:32;;;;;;;3.95;1.73;;;;;;;;;;5059614;28;20025;-83
2020/12/27 18:06:58;;;;;;;3.33;1.77;;;;;;;;;;5048727;28;20028;-83
2020/12/27 18:09:24;;;;;;;4.30;2.08;;;;;;;;;;5068723;28;20529;-84
2020/12/27 18:11:50;;;;;;;3.67;1.60;;;;;;;;;;5093357;28;20040;-84
2020/12/27 18:14:16;;;;;;;4.10;1.75;;;;;;;;;;5089262;28;20035;-84
2020/12/27 18:16:46;;;;;;;3.63;1.33;;;;;;;;;;5075771;28;20031;-84
2020/12/27 18:19:13;;;;;;;5.25;2.40;;;;;;;;;;5077083;28;20020;-84
2020/12/27 18:21:40;;;;;;;3.20;2.15;;;;;;;;;;5064889;28;20023;-84
2020/12/27 18:24:06;;;;;;;3.42;1.58;;;;;;;;;;5063115;28;20028;-84
2020/12/27 18:26:32;;;;;;;3.38;1.55;;;;;;;;;;5073572;28;20035;-84
2020/12/27 18:28:58;;;;;;;4.78;2.22;;;;;;;;;;5088004;28;20513;-84
2020/12/27 18:31:24;;;;;;;3.78;1.85;;;;;;;;;;5083232;28;20028;-83
2020/12/27 18:33:50;;;;;;;3.28;1.58;;;;;;;;;;5078203;28;20096;-83
2020/12/27 18:36:17;;;;;;;3.42;1.75;;;;;;;;;;5071227;28;20036;-82
2020/12/27 18:38:43;;;;;;;3.10;1.67;;;;;;;;;;5067625;28;20808;-82
2020/12/27 18:41:10;;;;;;;3.10;1.30;;;;;;;;;;5064683;28;20055;-82
2020/12/27 18:43:36;;;;;;;3.78;1.20;;;;;;;;;;5061932;28;20826;-83
2020/12/27 18:46:05;;;;;;;2.80;1.35;;;;;;;;;;5067448;28;20018;-82
2020/12/27 18:48:32;;;;;;;3.20;1.58;;;;;;;;;;5073754;28;20055;-82
2020/12/27 18:50:58;;;;;;;3.35;1.70;;;;;;;;;;5076781;28;20028;-82
2020/12/27 18:53:23;;;;;;;4.63;2.28;;;;;;;;;;5082895;28;20029;-83
2020/12/27 18:55:50;;;;;;;3.63;2.08;;;;;;;;;;5080808;28;20020;-82
2020/12/27 18:58:16;;;;;;;3.42;1.90;;;;;;;;;;5067888;28;20021;-82
2020/12/27 19:03:01;;;;;;;4.57;2.30;;;;;;;;;;5105166;27;20367;-83
2020/12/27 19:05:28;;;;;;;4.35;2.38;;;;;;;;;;5095655;28;20481;-83
2020/12/27 19:07:54;;;;;;;4.00;2.25;;;;;;;;;;5110959;28;20020;-83
2020/12/27 19:10:20;;;;;;;4.53;2.05;;;;;;;;;;5101818;28;20077;-83
2020/12/27 19:12:46;;;;;;;3.80;1.75;;;;;;;;;;5096203;28;20028;-83
2020/12/27 19:15:12;;;;;;;4.75;2.05;;;;;;;;;;5098669;28;20028;-83
2020/12/27 19:17:38;;;;;;;4.40;2.10;;;;;;;;;;5093516;28;20027;-83
2020/12/27 19:20:04;;;;;;;4.97;3.13;;;;;;;;;;5102567;28;20036;-83
2020/12/27 19:22:30;;;;;;;5.35;2.50;;;;;;;;;;5089946;28;20119;-83
2020/12/27 19:24:56;;;;;;;5.10;2.20;;;;;;;;;;5077555;28;20017;-83
2020/12/27 19:27:22;;;;;;;3.92;1.60;;;;;;;;;;5098870;28;20368;-82
2020/12/27 19:29:48;;;;;;;4.57;1.88;;;;;;;;;;5102066;28;20028;-84
2020/12/27 19:32:14;;;;;;;3.58;1.60;;;;;;;;;;5094254;28;20028;-84
2020/12/27 19:34:40;;;;;;;6.45;2.30;;;;;;;;;;5088482;28;20047;-84
2020/12/27 19:37:06;;;;;;;4.85;2.10;;;;;;;;;;5088181;28;20467;-85
2020/12/27 19:39:32;;;;;;;3.65;1.75;;;;;;;;;;5086495;28;20052;-84
2020/12/27 19:41:58;;;;;;;3.35;1.55;;;;;;;;;;5096304;28;20043;-85
2020/12/27 19:44:24;;;;;;;5.53;2.63;;;;;;;;;;5087515;28;20170;-85
2020/12/27 19:46:51;;;;;;;4.22;2.05;;;;;;;;;;5085703;28;20056;-83
2020/12/27 19:49:17;;;;;;;5.45;2.85;;;;;;;;;;5100019;28;20533;-83
2020/12/27 19:51:43;;;;;;;5.70;2.83;;;;;;;;;;5096112;28;20051;-84
2020/12/27 19:54:09;;;;;;;3.33;1.55;;;;;;;;;;5096549;28;20033;-84
2020/12/27 19:56:35;;;;;;;4.13;1.80;;;;;;;;;;5098340;28;20104;-84
2020/12/27 19:59:02;;;;;;;4.15;2.00;;;;;;;;;;5090566;28;20409;-84
2020/12/27 20:01:28;;;;;;;4.03;1.83;;;;;;;;;;5093637;28;20395;-83
2020/12/27 20:03:54;;;;;;;3.47;1.90;;;;;;;;;;5092947;28;20472;-83
2020/12/27 20:06:23;;;;;;;5.50;2.05;;;;;;;;;;5099093;28;20099;-84
2020/12/27 20:08:50;;;;;;;4.88;1.85;;;;;;;;;;5090972;28;20020;-84
2020/12/27 20:11:20;;;;;;;2.95;1.45;;;;;;;;;;5096492;28;20106;-84
2020/12/27 20:13:47;;;;;;;2.95;1.45;;;;;;;;;;5083536;28;20031;-84
2020/12/27 20:16:26;;;;;;;4.88;2.10;;;;;;;;;;5092299;28;20028;-84
2020/12/27 20:18:52;;;;;;;4.80;2.90;;;;;;;;;;5082614;28;20044;-84
2020/12/27 20:21:18;;;;;;;3.38;1.45;;;;;;;;;;5073536;28;20036;-84
2020/12/27 20:23:44;;;;;;;3.95;2.05;;;;;;;;;;5066042;28;20036;-84
2020/12/27 20:26:10;;;;;;;3.47;1.63;;;;;;;;;;5083295;28;20020;-84
2020/12/27 20:28:36;;;;;;;2.83;1.25;;;;;;;;;;5076895;28;20388;-84
2020/12/27 20:31:03;;;;;;;4.18;1.75;;;;;;;;;;5080272;28;20025;-84
2020/12/27 20:33:29;;;;;;;2.92;1.55;;;;;;;;;;5081818;28;20498;-84
2020/12/27 20:35:55;;;;;;;3.97;1.85;;;;;;;;;;5076376;28;20404;-84
2020/12/27 20:38:21;;;;;;;3.13;1.60;;;;;;;;;;5083875;28;20024;-84
2020/12/27 20:40:47;;;;;;;3.67;1.60;;;;;;;;;;5085580;28;20029;-84
2020/12/27 20:43:13;;;;;;;5.63;1.55;;;;;;;;;;5086541;28;20391;-84
2020/12/27 20:45:38;;;;;;;3.53;1.70;;;;;;;;;;5082453;28;20487;-84
2020/12/27 20:48:05;;;;;;;4.45;2.42;;;;;;;;;;5074494;28;20029;-83
2020/12/27 20:50:31;;;;;;;2.88;1.33;;;;;;;;;;5081414;28;20646;-83
2020/12/27 20:52:57;;;;;;;4.32;1.58;;;;;;;;;;5082477;28;20035;-83
2020/12/27 20:55:23;;;;;;;3.92;1.88;;;;;;;;;;5082537;28;20024;-82
2020/12/27 20:57:49;;;;;;;3.15;1.67;;;;;;;;;;5078184;28;20078;-83
2020/12/27 21:00:15;;;;;;;3.83;2.33;;;;;;;;;;5071866;28;20427;-82